Time;durP1;ratioP1;P1;durP2;ratioP2;P2;SDS_P1;SDS_P2;PMS_P1;PMS_P2;Temp;Humidity;BMP_temperature;BMP_pressure;BME280_temperature;BME280_humidity;BME280_pressure;Samples;Min_cycle;Max_cycle;Signal;HPM_P1;HPM_P2
2023/11/28 00:01:21;;;;;;;4.15;3.03;;;3.80;98.60;;;;;;6131941;23;19998;-88
2023/11/28 00:03:47;;;;;;;4.43;3.30;;;3.80;98.70;;;;;;6127490;23;20102;-88
2023/11/28 00:06:17;;;;;;;3.78;3.05;;;3.80;98.70;;;;;;6127905;23;20582;-87
2023/11/28 00:08:42;;;;;;;4.57;3.50;;;3.70;98.60;;;;;;6131816;23;20059;-88
2023/11/28 00:11:19;;;;;;;4.25;3.28;;;3.80;98.70;;;;;;6161177;23;20001;-87
2023/11/28 00:13:44;;;;;;;3.97;3.08;;;3.70;98.80;;;;;;6101937;23;20005;-87
2023/11/28 00:16:10;;;;;;;4.38;3.25;;;3.80;98.70;;;;;;6129269;23;20010;-87
2023/11/28 00:18:36;;;;;;;4.68;3.15;;;3.80;98.60;;;;;;6129624;23;20089;-86
2023/11/28 00:21:02;;;;;;;4.63;3.40;;;3.70;98.60;;;;;;6129639;23;20052;-87
2023/11/28 00:23:28;;;;;;;4.22;3.03;;;3.70;98.70;;;;;;6130651;23;20069;-87
2023/11/28 00:25:53;;;;;;;4.03;3.05;;;3.70;98.70;;;;;;6130348;23;19998;-88
2023/11/28 00:28:21;;;;;;;3.40;2.90;;;3.70;98.70;;;;;;6130160;23;20079;-87
2023/11/28 00:30:48;;;;;;;4.63;3.45;;;3.80;98.70;;;;;;6106655;23;20089;-88
2023/11/28 00:33:13;;;;;;;5.03;3.30;;;3.70;98.50;;;;;;6129870;23;20004;-87
2023/11/28 00:35:39;;;;;;;5.10;3.13;;;3.70;98.90;;;;;;6130842;23;20025;-87
2023/11/28 00:38:05;;;;;;;4.55;3.28;;;3.70;98.70;;;;;;6129552;23;20006;-87
2023/11/28 00:40:34;;;;;;;5.20;3.55;;;3.60;98.60;;;;;;6129998;23;20028;-87
2023/11/28 00:42:59;;;;;;;4.00;2.90;;;3.60;98.50;;;;;;6129959;23;20002;-87
2023/11/28 00:45:25;;;;;;;3.30;2.70;;;3.60;98.80;;;;;;6129873;23;20013;-87
2023/11/28 00:47:56;;;;;;;3.80;2.95;;;3.60;98.60;;;;;;6129841;23;20005;-88
2023/11/28 00:50:22;;;;;;;3.80;2.70;;;3.70;98.50;;;;;;6156558;23;20008;-88
2023/11/28 00:52:48;;;;;;;3.40;2.72;;;3.70;98.40;;;;;;6132040;23;20080;-86
2023/11/28 00:55:35;;;;;;;3.35;2.53;;;3.70;98.40;;;;;;6132706;23;20402;-86
2023/11/28 00:58:00;;;;;;;3.75;2.80;;;3.70;98.40;;;;;;6131834;23;20535;-87
2023/11/28 01:00:26;;;;;;;4.32;3.10;;;3.70;98.20;;;;;;6134456;23;20006;-86
2023/11/28 01:02:53;;;;;;;4.95;3.30;;;3.60;98.20;;;;;;6131768;23;20016;-86
2023/11/28 01:05:20;;;;;;;5.10;3.42;;;3.60;98.10;;;;;;6132886;23;20033;-87
2023/11/28 01:07:46;;;;;;;4.00;3.03;;;3.50;98.10;;;;;;6130884;23;20010;-87
2023/11/28 01:10:12;;;;;;;4.10;3.03;;;3.50;98.20;;;;;;6133997;23;20023;-86
2023/11/28 01:12:38;;;;;;;3.38;2.72;;;3.40;98.20;;;;;;6133848;23;19998;-87
2023/11/28 01:15:04;;;;;;;4.13;2.83;;;3.40;98.30;;;;;;6131636;23;20096;-86
2023/11/28 01:17:30;;;;;;;4.57;3.25;;;3.50;98.30;;;;;;6133374;23;20016;-87
2023/11/28 01:19:55;;;;;;;4.60;3.28;;;3.40;98.10;;;;;;6135005;23;20005;-86
2023/11/28 01:22:21;;;;;;;5.57;3.05;;;3.40;98.10;;;;;;6134847;23;20020;-86
2023/11/28 01:24:47;;;;;;;3.55;2.67;;;3.40;98.10;;;;;;6133620;23;20001;-87
2023/11/28 01:27:13;;;;;;;4.07;2.70;;;3.40;98.10;;;;;;6132673;23;20032;-87
2023/11/28 01:29:38;;;;;;;4.15;3.00;;;3.50;98.20;;;;;;6138344;23;20065;-87
2023/11/28 01:32:04;;;;;;;3.53;2.90;;;3.40;98.10;;;;;;6129148;23;19998;-88
2023/11/28 01:34:30;;;;;;;3.85;2.95;;;3.50;98.10;;;;;;6129978;23;20016;-87
2023/11/28 01:36:56;;;;;;;5.00;3.80;;;3.40;98.00;;;;;;6131321;23;20032;-87
2023/11/28 01:39:21;;;;;;;3.97;2.90;;;3.40;97.90;;;;;;6130768;23;20006;-87
2023/11/28 01:41:50;;;;;;;3.75;2.67;;;3.30;97.90;;;;;;6130225;23;20016;-88
2023/11/28 01:44:16;;;;;;;4.40;3.30;;;3.40;98.10;;;;;;6127794;23;20012;-89
2023/11/28 01:46:42;;;;;;;4.78;3.33;;;3.40;98.00;;;;;;6128853;23;20033;-89
2023/11/28 01:49:08;;;;;;;4.40;3.10;;;3.30;97.90;;;;;;6128131;23;20093;-89
2023/11/28 01:51:35;;;;;;;4.63;3.33;;;3.40;97.90;;;;;;6128816;23;20059;-90
2023/11/28 01:54:02;;;;;;;4.05;3.17;;;3.40;97.80;;;;;;6128143;23;20002;-89
2023/11/28 01:56:29;;;;;;;3.50;2.63;;;3.30;97.80;;;;;;6128019;23;20088;-89
2023/11/28 01:58:55;;;;;;;3.30;2.75;;;3.30;97.90;;;;;;6128338;23;20005;-92
2023/11/28 02:01:21;;;;;;;4.75;3.33;;;3.30;97.70;;;;;;6128538;23;19997;-89
2023/11/28 02:03:51;;;;;;;3.35;2.55;;;3.30;97.70;;;;;;6130019;23;20024;-89
2023/11/28 02:06:17;;;;;;;3.60;2.70;;;3.30;97.80;;;;;;6133673;23;20002;-89
2023/11/28 02:08:43;;;;;;;4.32;3.05;;;3.30;97.80;;;;;;6153876;23;19998;-88
2023/11/28 02:11:09;;;;;;;4.82;3.42;;;3.30;97.70;;;;;;6128188;23;20001;-87
2023/11/28 02:13:35;;;;;;;5.22;3.92;;;3.20;97.80;;;;;;6128535;23;20004;-89
2023/11/28 02:16:10;;;;;;;5.13;3.65;;;3.20;97.80;;;;;;6128530;23;20373;-86
2023/11/28 02:18:35;;;;;;;4.72;3.38;;;3.20;97.80;;;;;;6128888;23;20396;-87
2023/11/28 02:21:01;;;;;;;3.42;2.75;;;3.20;97.70;;;;;;6154758;23;20013;-86
2023/11/28 02:23:26;;;;;;;5.07;3.75;;;3.30;97.70;;;;;;6129240;23;20001;-87
2023/11/28 02:25:57;;;;;;;4.65;3.60;;;3.20;97.60;;;;;;6128973;23;20013;-86
2023/11/28 02:28:24;;;;;;;4.47;3.47;;;3.20;97.60;;;;;;6129437;23;20005;-86
2023/11/28 02:30:52;;;;;;;4.82;3.70;;;3.20;97.60;;;;;;6130212;23;20420;-86
2023/11/28 02:33:18;;;;;;;4.40;3.20;;;3.20;97.60;;;;;;6128756;23;20040;-86
2023/11/28 02:35:44;;;;;;;5.18;3.15;;;3.20;97.60;;;;;;6129024;23;19998;-86
2023/11/28 02:38:11;;;;;;;4.22;3.30;;;3.20;97.60;;;;;;6127675;23;20005;-86
2023/11/28 02:40:36;;;;;;;4.65;3.45;;;3.30;97.50;;;;;;6128765;23;20010;-86
2023/11/28 02:43:02;;;;;;;4.53;3.13;;;3.30;97.40;;;;;;6154513;23;20495;-86
2023/11/28 02:45:27;;;;;;;4.95;3.60;;;3.30;97.40;;;;;;6128492;23;20340;-86
2023/11/28 02:47:53;;;;;;;5.38;3.78;;;3.30;97.30;;;;;;6154198;23;20005;-86
2023/11/28 02:50:18;;;;;;;4.65;3.20;;;3.30;97.30;;;;;;6128068;23;20061;-85
2023/11/28 02:52:44;;;;;;;6.18;3.53;;;3.30;97.40;;;;;;6153983;23;20005;-87
2023/11/28 02:55:09;;;;;;;6.88;4.03;;;3.30;97.40;;;;;;6127050;23;20290;-87
2023/11/28 02:57:35;;;;;;;7.50;4.60;;;3.30;97.30;;;;;;6127265;23;20726;-88
2023/11/28 03:00:04;;;;;;;5.75;3.85;;;3.20;97.20;;;;;;6127422;23;20008;-87
2023/11/28 03:02:30;;;;;;;6.22;3.90;;;3.20;97.30;;;;;;6128038;23;20001;-87
2023/11/28 03:04:56;;;;;;;6.45;4.50;;;3.20;97.40;;;;;;6127225;23;20394;-88
2023/11/28 03:07:21;;;;;;;6.38;4.40;;;3.10;97.40;;;;;;6126966;23;20037;-89
2023/11/28 03:09:47;;;;;;;5.65;4.03;;;3.10;97.30;;;;;;6127363;23;20009;-88
2023/11/28 03:12:13;;;;;;;5.90;3.95;;;3.10;97.30;;;;;;6127653;23;20001;-89
2023/11/28 03:14:38;;;;;;;5.30;3.75;;;3.10;97.50;;;;;;6127788;23;20006;-88
2023/11/28 03:17:04;;;;;;;6.28;3.88;;;3.10;97.20;;;;;;6126970;23;20040;-87
2023/11/28 03:19:30;;;;;;;7.22;5.07;;;3.10;97.20;;;;;;6132051;23;20002;-86
2023/11/28 03:21:56;;;;;;;6.93;4.50;;;3.10;97.00;;;;;;6128093;23;20395;-86
2023/11/28 03:24:21;;;;;;;4.72;3.42;;;3.00;97.10;;;;;;6129772;23;20063;-84
2023/11/28 03:26:47;;;;;;;4.85;3.70;;;3.10;97.10;;;;;;6134096;23;20058;-84
2023/11/28 03:29:13;;;;;;;4.82;3.42;;;3.10;97.10;;;;;;6134770;23;20002;-88
2023/11/28 03:31:39;;;;;;;6.47;4.15;;;3.10;97.00;;;;;;6135012;23;20032;-88
2023/11/28 03:34:05;;;;;;;5.65;3.58;;;3.10;96.80;;;;;;6134615;23;20425;-84
2023/11/28 03:36:31;;;;;;;5.18;3.33;;;3.00;96.60;;;;;;6134842;23;20058;-85
2023/11/28 03:38:57;;;;;;;4.57;3.10;;;2.90;96.60;;;;;;6135026;23;20080;-85
2023/11/28 03:41:22;;;;;;;4.03;2.85;;;2.90;96.60;;;;;;6133509;23;20002;-84
2023/11/28 03:43:48;;;;;;;4.63;2.70;;;2.90;96.60;;;;;;6130187;23;20006;-85
2023/11/28 03:46:13;;;;;;;3.35;2.58;;;2.90;96.60;;;;;;6130020;23;19998;-84
2023/11/28 03:48:39;;;;;;;4.43;2.60;;;2.80;96.40;;;;;;6130878;23;20010;-86
2023/11/28 03:51:05;;;;;;;4.20;2.67;;;2.80;96.30;;;;;;6159002;23;20341;-83
2023/11/28 03:53:30;;;;;;;3.67;2.40;;;2.60;96.10;;;;;;6130518;23;20072;-86
2023/11/28 03:55:56;;;;;;;3.53;2.25;;;2.60;96.30;;;;;;6130653;23;20064;-86
2023/11/28 03:58:23;;;;;;;4.55;2.70;;;2.50;96.10;;;;;;6133545;23;20057;-87
2023/11/28 04:00:50;;;;;;;3.63;2.47;;;2.40;96.10;;;;;;6158686;23;20005;-88
2023/11/28 04:03:15;;;;;;;3.38;2.15;;;2.40;96.20;;;;;;6135422;23;20356;-87
2023/11/28 04:05:43;;;;;;;3.03;2.25;;;2.30;96.20;;;;;;6139485;23;20006;-86
2023/11/28 04:08:08;;;;;;;3.08;2.33;;;2.30;96.20;;;;;;6138849;23;20092;-87
2023/11/28 04:10:34;;;;;;;2.60;2.08;;;2.20;96.20;;;;;;6133239;23;20321;-86
2023/11/28 04:12:59;;;;;;;3.25;1.90;;;2.20;96.10;;;;;;6136510;23;20036;-86
2023/11/28 04:15:25;;;;;;;2.22;1.80;;;2.10;96.40;;;;;;6137395;23;20005;-86
2023/11/28 04:17:50;;;;;;;2.30;1.88;;;2.10;96.10;;;;;;6136919;23;20036;-85
2023/11/28 04:20:16;;;;;;;2.30;1.70;;;2.10;96.10;;;;;;6131041;23;20033;-88
2023/11/28 04:22:42;;;;;;;2.13;1.65;;;2.10;96.10;;;;;;6134165;23;20100;-87
2023/11/28 04:25:08;;;;;;;3.63;1.65;;;2.10;96.00;;;;;;6132213;23;20527;-88
2023/11/28 04:27:34;;;;;;;1.85;1.50;;;2.00;96.00;;;;;;6130882;23;20037;-88
2023/11/28 04:29:59;;;;;;;2.17;1.70;;;2.00;95.90;;;;;;6131023;23;20008;-91
2023/11/28 04:32:25;;;;;;;2.50;1.70;;;1.90;95.90;;;;;;6131056;23;20009;-88
2023/11/28 04:34:51;;;;;;;1.85;1.50;;;1.90;95.90;;;;;;6130577;23;20092;-88
2023/11/28 04:37:16;;;;;;;1.75;1.60;;;1.90;95.90;;;;;;6130791;23;20033;-89
2023/11/28 04:39:44;;;;;;;2.25;1.42;;;1.90;95.90;;;;;;6130971;23;20006;-88
2023/11/28 04:42:10;;;;;;;2.10;1.60;;;1.90;95.80;;;;;;6130954;23;20314;-89
2023/11/28 04:44:35;;;;;;;2.47;1.88;;;1.80;95.70;;;;;;6130827;23;20148;-88
2023/11/28 04:47:01;;;;;;;1.60;1.50;;;1.80;95.70;;;;;;6130156;23;20009;-87
2023/11/28 04:49:26;;;;;;;3.53;1.70;;;1.80;95.80;;;;;;6130422;23;20002;-87
2023/11/28 04:51:52;;;;;;;4.97;1.60;;;1.80;95.80;;;;;;6130197;23;20004;-87
2023/11/28 04:54:17;;;;;;;1.75;1.50;;;1.70;95.70;;;;;;6129607;23;20009;-86
2023/11/28 04:56:43;;;;;;;2.08;1.58;;;1.80;95.70;;;;;;6130248;23;20064;-89
2023/11/28 04:59:09;;;;;;;1.65;1.55;;;1.80;95.70;;;;;;6129869;23;20120;-88
2023/11/28 05:01:45;;;;;;;2.70;1.77;;;1.80;95.70;;;;;;6155907;23;20559;-88
2023/11/28 05:04:10;;;;;;;1.95;1.60;;;1.80;95.70;;;;;;6130742;23;20016;-89
2023/11/28 05:06:36;;;;;;;1.88;1.52;;;1.80;95.60;;;;;;6129759;23;20009;-90
2023/11/28 05:09:02;;;;;;;2.80;1.88;;;1.80;95.90;;;;;;6129758;23;20002;-88
2023/11/28 05:11:27;;;;;;;2.17;1.80;;;1.80;95.60;;;;;;6130034;23;20336;-87
2023/11/28 05:13:53;;;;;;;2.75;1.80;;;1.80;95.60;;;;;;6156238;23;20001;-87
2023/11/28 05:16:18;;;;;;;2.30;1.80;;;1.80;95.70;;;;;;6130267;23;20089;-89
2023/11/28 05:18:44;;;;;;;1.98;1.48;;;1.80;95.70;;;;;;6129557;23;20037;-88
2023/11/28 05:21:09;;;;;;;2.85;1.75;;;1.80;95.70;;;;;;6128761;23;20013;-89
2023/11/28 05:23:35;;;;;;;2.13;1.73;;;1.90;95.70;;;;;;6155771;23;19998;-89
2023/11/28 05:26:00;;;;;;;2.92;2.05;;;1.90;95.60;;;;;;6129019;23;20115;-89
2023/11/28 05:28:26;;;;;;;2.22;1.80;;;1.90;95.60;;;;;;6128931;23;20103;-89
2023/11/28 05:30:52;;;;;;;2.15;1.92;;;1.90;95.60;;;;;;6129443;23;20002;-89
2023/11/28 05:33:17;;;;;;;3.22;1.85;;;1.90;95.60;;;;;;6154509;23;20056;-88
2023/11/28 05:35:43;;;;;;;2.92;1.80;;;1.90;95.50;;;;;;6155588;23;20080;-89
2023/11/28 05:38:09;;;;;;;2.58;1.73;;;1.90;95.60;;;;;;6129830;23;20001;-88
2023/11/28 05:40:34;;;;;;;2.15;1.70;;;2.00;95.60;;;;;;6133834;23;20613;-89
2023/11/28 05:43:00;;;;;;;3.42;1.80;;;2.00;95.60;;;;;;6132646;23;20032;-88
2023/11/28 05:45:26;;;;;;;2.50;1.90;;;2.00;95.50;;;;;;6133227;23;20001;-89
2023/11/28 05:47:52;;;;;;;2.20;1.60;;;2.00;95.50;;;;;;6131026;23;20009;-89
2023/11/28 05:50:18;;;;;;;3.03;1.85;;;2.00;95.50;;;;;;6128778;23;20445;-90
2023/11/28 05:52:43;;;;;;;2.47;1.85;;;2.00;95.50;;;;;;6129529;23;20005;-90
2023/11/28 05:55:09;;;;;;;2.25;1.70;;;2.10;95.50;;;;;;6154455;23;20073;-90
2023/11/28 05:57:34;;;;;;;2.38;1.70;;;2.10;95.50;;;;;;6133168;23;20389;-89
2023/11/28 06:00:00;;;;;;;2.65;1.70;;;2.10;95.50;;;;;;6154347;23;20001;-90
2023/11/28 06:02:25;;;;;;;2.42;1.80;;;2.10;95.50;;;;;;6129386;23;20233;-87
2023/11/28 06:04:51;;;;;;;2.50;1.60;;;2.10;95.40;;;;;;6129110;23;20001;-88
2023/11/28 06:07:16;;;;;;;2.33;1.67;;;2.20;95.50;;;;;;6127311;23;20009;-88
2023/11/28 06:09:42;;;;;;;1.83;1.50;;;2.20;95.40;;;;;;6128454;23;20381;-88
2023/11/28 06:12:08;;;;;;;1.98;1.40;;;2.20;95.40;;;;;;6128189;23;20010;-89
2023/11/28 06:14:35;;;;;;;1.85;1.40;;;2.30;95.40;;;;;;6127593;23;20080;-88
2023/11/28 06:17:01;;;;;;;1.35;1.17;;;2.20;95.40;;;;;;6128390;23;20417;-88
2023/11/28 06:19:32;;;;;;;1.80;1.40;;;2.30;95.40;;;;;;6129282;23;20012;-89
2023/11/28 06:22:45;;;;;;;1.70;1.55;;;2.30;95.40;;;;;;6130536;23;20586;-89
2023/11/28 06:25:11;;;;;;;2.17;1.50;;;2.30;95.40;;;;;;6127520;23;20435;-90
2023/11/28 06:27:37;;;;;;;1.73;1.15;;;2.30;95.40;;;;;;6129605;23;20040;-87
2023/11/28 06:30:14;;;;;;;1.88;1.50;;;2.30;95.40;;;;;;6129476;23;20006;-89
2023/11/28 06:33:08;;;;;;;1.73;1.58;;;2.30;95.40;;;;;;6156241;23;20052;-88
2023/11/28 06:35:34;;;;;;;1.58;1.35;;;2.30;95.30;;;;;;6125641;23;20024;-89
2023/11/28 06:38:01;;;;;;;1.83;1.52;;;2.30;95.30;;;;;;6155269;23;20426;-92
2023/11/28 06:40:26;;;;;;;1.77;1.55;;;2.30;95.30;;;;;;6104551;23;20009;-83
2023/11/28 06:42:52;;;;;;;1.85;1.58;;;2.30;95.30;;;;;;6161487;23;20061;-90
2023/11/28 06:45:18;;;;;;;2.05;1.63;;;2.30;95.30;;;;;;6141436;23;19994;-89
2023/11/28 06:47:43;;;;;;;1.45;1.35;;;2.30;95.30;;;;;;6140820;23;20001;-87
2023/11/28 06:50:10;;;;;;;2.08;1.50;;;2.40;95.30;;;;;;6137923;23;19997;-88
2023/11/28 06:52:36;;;;;;;2.13;1.60;;;2.30;95.20;;;;;;6159267;23;19998;-89
2023/11/28 06:55:06;;;;;;;2.13;1.73;;;2.30;95.20;;;;;;6138531;23;20057;-91
2023/11/28 06:57:33;;;;;;;1.80;1.60;;;2.30;95.20;;;;;;6132087;23;20061;-89
2023/11/28 06:59:58;;;;;;;1.33;1.23;;;2.30;95.20;;;;;;6133931;23;20016;-88
2023/11/28 07:02:24;;;;;;;1.42;1.30;;;2.40;95.20;;;;;;6134150;23;20080;-88
2023/11/28 07:04:49;;;;;;;1.73;1.48;;;2.40;95.20;;;;;;6130005;23;20005;-89
2023/11/28 07:07:15;;;;;;;1.95;1.40;;;2.40;95.20;;;;;;6134989;23;20069;-87
2023/11/28 07:09:47;;;;;;;2.17;1.40;;;2.40;95.20;;;;;;6138664;23;20001;-88
2023/11/28 07:12:13;;;;;;;1.55;1.30;;;2.40;95.20;;;;;;6139587;23;20015;-88
2023/11/28 07:14:38;;;;;;;1.60;1.42;;;2.50;95.10;;;;;;6135269;23;20006;-88
2023/11/28 07:17:04;;;;;;;1.77;1.63;;;2.50;95.10;;;;;;6133085;23;20009;-91
2023/11/28 07:19:30;;;;;;;2.85;1.67;;;2.50;95.00;;;;;;6135334;23;20012;-89
2023/11/28 07:21:55;;;;;;;1.70;1.60;;;2.50;95.00;;;;;;6136856;23;20013;-89
2023/11/28 07:24:21;;;;;;;2.65;1.60;;;2.50;95.00;;;;;;6134435;23;20020;-89
2023/11/28 07:26:47;;;;;;;1.65;1.40;;;2.50;94.90;;;;;;6133756;23;20161;-89
2023/11/28 07:29:13;;;;;;;1.67;1.55;;;2.50;94.90;;;;;;6134305;23;19998;-89
2023/11/28 07:31:38;;;;;;;2.63;1.48;;;2.60;94.90;;;;;;6159621;23;20021;-88
2023/11/28 07:34:05;;;;;;;1.55;1.45;;;2.60;94.80;;;;;;6136011;23;19993;-88
2023/11/28 07:36:30;;;;;;;1.83;1.45;;;2.60;94.80;;;;;;6136423;23;20002;-88
2023/11/28 07:38:56;;;;;;;1.40;1.30;;;2.60;94.60;;;;;;6135250;23;20096;-89
2023/11/28 07:41:22;;;;;;;1.42;1.33;;;2.70;94.70;;;;;;6133713;23;20001;-90
2023/11/28 07:43:48;;;;;;;1.42;1.33;;;2.70;94.70;;;;;;6137084;23;20006;-89
2023/11/28 07:46:15;;;;;;;1.30;1.20;;;2.70;94.60;;;;;;6136208;23;20012;-88
2023/11/28 07:48:47;;;;;;;1.65;1.23;;;2.80;94.50;;;;;;6163296;23;20016;-89
2023/11/28 07:51:13;;;;;;;2.53;1.30;;;2.80;94.50;;;;;;6137880;23;20044;-88
2023/11/28 07:53:40;;;;;;;1.88;1.20;;;2.90;94.50;;;;;;6137694;23;20006;-88
2023/11/28 07:56:06;;;;;;;1.40;1.30;;;2.80;94.30;;;;;;6138406;23;20175;-91
2023/11/28 07:58:33;;;;;;;1.20;1.10;;;2.80;94.40;;;;;;6138326;23;20044;-88
2023/11/28 08:00:59;;;;;;;1.17;1.10;;;2.90;94.40;;;;;;6137083;23;20005;-88
2023/11/28 08:03:57;;;;;;;1.20;1.10;;;3.00;94.40;;;;;;6137756;23;20364;-89
2023/11/28 08:06:25;;;;;;;1.17;1.13;;;3.00;94.20;;;;;;6090655;23;20016;-89
2023/11/28 08:08:50;;;;;;;1.38;1.17;;;3.00;94.10;;;;;;6139786;23;20002;-89
2023/11/28 08:11:16;;;;;;;1.50;1.40;;;3.00;94.10;;;;;;6164689;23;20001;-88
2023/11/28 08:13:42;;;;;;;1.20;1.10;;;3.00;94.10;;;;;;6168763;23;19998;-88
2023/11/28 08:16:08;;;;;;;2.25;1.15;;;3.10;94.10;;;;;;6149103;23;19990;-90
2023/11/28 08:18:33;;;;;;;1.27;1.17;;;3.10;94.00;;;;;;6151556;23;20061;-91
2023/11/28 08:21:02;;;;;;;1.63;1.33;;;3.10;93.90;;;;;;6153988;23;20010;-89
2023/11/28 08:23:28;;;;;;;1.55;1.20;;;3.10;93.80;;;;;;6154049;23;19993;-92
2023/11/28 08:25:53;;;;;;;1.10;1.10;;;3.10;93.80;;;;;;6155538;23;20021;-90
2023/11/28 08:28:19;;;;;;;1.73;1.20;;;3.10;93.70;;;;;;6149041;23;20013;-88
2023/11/28 08:30:44;;;;;;;1.30;1.17;;;3.10;93.60;;;;;;6139688;23;20006;-88
2023/11/28 08:33:10;;;;;;;1.30;1.10;;;3.10;93.60;;;;;;6138252;23;20005;-88
2023/11/28 08:35:36;;;;;;;1.10;1.00;;;3.10;93.70;;;;;;6136366;23;20464;-87
2023/11/28 08:38:01;;;;;;;1.02;1.00;;;3.00;93.70;;;;;;6140015;23;20002;-89
2023/11/28 08:40:27;;;;;;;0.90;0.90;;;3.00;93.70;;;;;;6140736;23;20084;-89
2023/11/28 08:42:52;;;;;;;0.95;0.95;;;3.00;93.80;;;;;;6141191;23;20013;-88
2023/11/28 08:45:18;;;;;;;0.82;0.82;;;3.10;93.80;;;;;;6139875;23;20009;-88
2023/11/28 08:47:43;;;;;;;1.15;1.00;;;3.10;93.90;;;;;;6138890;23;20005;-88
2023/11/28 08:50:12;;;;;;;1.10;1.00;;;3.10;93.90;;;;;;6138696;23;20077;-89
2023/11/28 08:52:37;;;;;;;1.02;1.00;;;3.20;93.80;;;;;;6138867;23;19998;-88
2023/11/28 08:55:03;;;;;;;1.20;1.10;;;3.20;93.70;;;;;;6138258;23;20089;-90
2023/11/28 08:57:33;;;;;;;0.88;0.88;;;3.20;93.70;;;;;;6138125;23;20054;-88
2023/11/28 09:00:06;;;;;;;0.90;0.90;;;3.20;93.70;;;;;;6138130;23;20010;-88
2023/11/28 09:02:32;;;;;;;1.00;1.00;;;3.30;93.70;;;;;;6139250;23;19997;-91
2023/11/28 09:04:58;;;;;;;1.20;1.10;;;3.20;93.70;;;;;;6139257;23;20369;-87
2023/11/28 09:07:24;;;;;;;1.55;1.20;;;3.30;93.70;;;;;;6140067;23;20025;-88
2023/11/28 09:09:49;;;;;;;1.20;1.10;;;3.30;93.60;;;;;;6139949;23;20013;-88
2023/11/28 09:12:17;;;;;;;1.00;1.00;;;3.30;93.60;;;;;;6137856;23;20001;-93
2023/11/28 09:14:43;;;;;;;1.10;1.00;;;3.30;93.60;;;;;;6139619;23;20004;-89
2023/11/28 09:17:08;;;;;;;3.83;1.10;;;3.30;93.50;;;;;;6137234;23;20005;-90
2023/11/28 09:19:35;;;;;;;1.30;1.10;;;3.30;93.50;;;;;;6137268;23;20440;-87
2023/11/28 09:22:02;;;;;;;1.20;1.10;;;3.20;93.50;;;;;;6137479;23;20021;-87
2023/11/28 09:24:31;;;;;;;1.30;1.20;;;3.20;93.60;;;;;;6136217;23;20013;-88
2023/11/28 09:26:57;;;;;;;1.08;1.02;;;3.30;93.60;;;;;;6137721;23;20006;-88
2023/11/28 09:29:23;;;;;;;1.02;1.00;;;3.20;93.60;;;;;;6137728;23;20471;-89
2023/11/28 09:31:49;;;;;;;1.05;1.00;;;3.30;93.70;;;;;;6139356;23;20001;-89
2023/11/28 09:34:15;;;;;;;1.00;1.00;;;3.30;93.60;;;;;;6137409;23;20001;-88
2023/11/28 09:36:41;;;;;;;2.25;1.10;;;3.40;93.60;;;;;;6137918;23;20056;-87
2023/11/28 09:39:09;;;;;;;1.13;1.02;;;3.40;93.60;;;;;;6142479;23;20009;-91
2023/11/28 09:41:38;;;;;;;1.17;0.90;;;3.40;93.60;;;;;;6142696;23;19998;-87
2023/11/28 09:44:05;;;;;;;1.45;1.05;;;3.40;93.60;;;;;;6140720;23;20365;-89
2023/11/28 09:46:31;;;;;;;1.10;1.00;;;3.50;93.60;;;;;;6152247;23;20010;-92
2023/11/28 09:49:00;;;;;;;1.77;1.20;;;3.50;93.50;;;;;;6153898;23;19994;-88
2023/11/28 09:51:27;;;;;;;1.20;1.02;;;3.50;93.50;;;;;;6154294;23;20004;-92
2023/11/28 09:53:57;;;;;;;0.80;0.75;;;3.50;93.50;;;;;;6154087;23;20016;-88
2023/11/28 09:56:24;;;;;;;1.30;1.20;;;3.60;93.50;;;;;;6148294;23;20048;-88
2023/11/28 09:58:58;;;;;;;1.50;1.30;;;3.60;93.40;;;;;;6139612;23;20033;-88
2023/11/28 10:01:25;;;;;;;2.85;1.30;;;3.60;93.40;;;;;;6140825;23;20013;-87
2023/11/28 10:03:50;;;;;;;1.77;1.20;;;3.60;93.40;;;;;;6140750;23;20080;-87
2023/11/28 10:06:19;;;;;;;1.52;1.23;;;3.60;93.40;;;;;;6141105;23;20006;-87
2023/11/28 10:08:48;;;;;;;1.45;1.30;;;3.70;93.40;;;;;;6143070;23;20029;-90
2023/11/28 10:11:16;;;;;;;1.45;1.30;;;3.70;93.30;;;;;;6141535;23;20002;-87
2023/11/28 10:13:46;;;;;;;1.27;1.17;;;3.70;93.60;;;;;;6140753;23;20012;-87
2023/11/28 10:16:16;;;;;;;1.85;1.10;;;3.80;93.30;;;;;;6140026;23;19998;-87
2023/11/28 10:18:48;;;;;;;1.35;1.20;;;3.80;93.20;;;;;;6140338;23;20060;-87
2023/11/28 10:21:16;;;;;;;1.30;1.20;;;3.80;93.20;;;;;;6138594;23;20024;-87
2023/11/28 10:23:46;;;;;;;1.38;1.10;;;3.90;93.20;;;;;;6136595;23;20009;-87
2023/11/28 10:26:12;;;;;;;1.73;1.20;;;3.90;93.10;;;;;;6134791;23;20088;-87
2023/11/28 10:28:38;;;;;;;1.30;1.20;;;4.00;93.10;;;;;;6135460;23;20488;-87
2023/11/28 10:31:07;;;;;;;1.40;1.25;;;3.90;92.80;;;;;;6138337;23;20336;-88
2023/11/28 10:33:33;;;;;;;1.10;1.00;;;3.90;92.90;;;;;;6140996;23;20012;-87
2023/11/28 10:35:59;;;;;;;1.40;1.30;;;4.00;92.90;;;;;;6141974;23;20352;-88
2023/11/28 10:38:26;;;;;;;1.20;1.10;;;4.10;92.90;;;;;;6138086;23;20008;-87
2023/11/28 10:40:53;;;;;;;2.05;1.40;;;4.20;92.90;;;;;;6136879;23;20141;-87
2023/11/28 10:43:19;;;;;;;1.35;1.08;;;4.20;92.70;;;;;;6136602;23;20005;-87
2023/11/28 10:45:45;;;;;;;1.38;1.23;;;4.20;92.70;;;;;;6139299;23;20017;-88
2023/11/28 10:48:12;;;;;;;1.10;1.00;;;4.30;92.70;;;;;;6139256;23;20104;-87
2023/11/28 10:50:37;;;;;;;1.20;1.10;;;4.30;92.60;;;;;;6138737;23;20025;-88
2023/11/28 10:53:06;;;;;;;1.20;1.10;;;4.40;92.60;;;;;;6137249;23;20492;-89
2023/11/28 10:55:51;;;;;;;1.02;0.95;;;4.40;92.50;;;;;;6136850;23;20080;-88
2023/11/28 10:58:17;;;;;;;1.10;1.00;;;4.50;92.40;;;;;;6136484;23;20013;-87
2023/11/28 11:00:54;;;;;;;1.20;1.10;;;4.50;92.30;;;;;;6137262;23;20037;-87
2023/11/28 11:03:22;;;;;;;1.45;0.90;;;4.50;92.20;;;;;;6135356;23;20495;-88
2023/11/28 11:05:51;;;;;;;1.20;1.10;;;4.50;92.10;;;;;;6163046;23;20019;-87
2023/11/28 11:08:18;;;;;;;1.10;1.00;;;4.60;92.20;;;;;;6136038;23;20016;-89
2023/11/28 11:10:44;;;;;;;1.00;1.00;;;4.60;92.10;;;;;;6136544;23;20002;-88
2023/11/28 11:13:41;;;;;;;1.05;1.02;;;4.60;92.00;;;;;;6137453;23;20048;-90
2023/11/28 11:16:19;;;;;;;1.10;1.00;;;4.70;92.00;;;;;;6136067;23;20012;-88
2023/11/28 11:25:03;;;;;;;1.20;1.10;;;4.70;91.70;;;;;;6160004;23;20009;-89
2023/11/28 11:27:29;;;;;;;1.08;0.98;;;4.80;91.70;;;;;;6133006;23;20032;-88
2023/11/28 11:29:55;;;;;;;1.30;1.05;;;4.90;91.50;;;;;;6132364;23;20001;-88
2023/11/28 11:32:22;;;;;;;1.20;1.10;;;4.90;91.40;;;;;;6132970;23;20002;-89
2023/11/28 11:34:49;;;;;;;1.60;1.20;;;5.00;91.40;;;;;;6135469;23;20002;-88
2023/11/28 11:37:20;;;;;;;1.15;1.05;;;4.90;91.40;;;;;;6135097;23;20005;-89
2023/11/28 11:39:46;;;;;;;1.35;1.25;;;5.00;91.30;;;;;;6133619;23;20064;-88
2023/11/28 11:42:24;;;;;;;1.40;1.10;;;4.90;91.30;;;;;;6145434;23;20215;-94
2023/11/28 11:44:51;;;;;;;1.70;1.55;;;5.00;91.40;;;;;;6153595;23;20008;-95
2023/11/28 11:47:25;;;;;;;1.10;1.05;;;5.00;91.30;;;;;;6153549;23;20041;-92
2023/11/28 11:49:53;;;;;;;1.40;1.00;;;5.10;91.30;;;;;;6137649;23;20096;-89
2023/11/28 11:52:20;;;;;;;1.20;1.10;;;5.10;91.00;;;;;;6132346;23;20356;-89
2023/11/28 11:54:46;;;;;;;1.60;1.10;;;5.10;90.40;;;;;;6130819;23;20008;-88
2023/11/28 11:57:13;;;;;;;1.75;1.10;;;5.20;90.60;;;;;;6130927;23;19998;-88
2023/11/28 11:59:45;;;;;;;1.20;1.10;;;5.10;90.50;;;;;;6131051;23;20005;-88
2023/11/28 12:02:14;;;;;;;2.17;1.10;;;5.20;90.40;;;;;;6131164;23;20002;-88
2023/11/28 12:04:45;;;;;;;0.90;0.90;;;5.20;90.40;;;;;;6157023;23;20002;-89
2023/11/28 12:07:12;;;;;;;1.48;1.00;;;5.30;90.40;;;;;;6106337;23;20013;-90
2023/11/28 12:09:42;;;;;;;1.10;1.00;;;5.30;90.40;;;;;;6129302;23;20318;-90
2023/11/28 12:12:12;;;;;;;1.20;0.98;;;5.30;90.30;;;;;;6131784;23;20424;-88
2023/11/28 12:15:17;;;;;;;0.93;0.90;;;5.30;90.30;;;;;;6131411;23;19998;-89
2023/11/28 12:17:42;;;;;;;1.17;1.00;;;5.20;90.30;;;;;;6013709;23;20007;-90
2023/11/28 12:20:09;;;;;;;1.00;0.90;;;5.30;90.30;;;;;;6133699;23;20385;-89
2023/11/28 12:22:34;;;;;;;1.48;1.10;;;5.30;90.30;;;;;;6131944;23;20006;-89
2023/11/28 12:25:01;;;;;;;1.00;1.00;;;5.20;90.30;;;;;;6143106;23;20012;-90
2023/11/28 12:27:27;;;;;;;1.00;1.00;;;5.20;90.30;;;;;;6142147;23;20016;-88
2023/11/28 12:29:52;;;;;;;1.20;1.10;;;5.20;90.30;;;;;;6145902;23;20005;-89
2023/11/28 12:32:18;;;;;;;1.52;1.20;;;5.30;90.30;;;;;;6132792;23;20020;-86
2023/11/28 12:34:44;;;;;;;1.20;1.10;;;5.20;90.20;;;;;;6130482;23;20712;-86
2023/11/28 12:37:09;;;;;;;1.23;1.13;;;5.30;90.30;;;;;;6132245;23;20460;-86
2023/11/28 12:39:35;;;;;;;1.38;1.10;;;5.30;90.30;;;;;;6156085;23;20507;-86
2023/11/28 12:42:06;;;;;;;1.10;1.00;;;5.30;90.30;;;;;;6131231;23;20002;-86
2023/11/28 12:44:35;;;;;;;1.33;1.10;;;5.30;90.30;;;;;;6138005;23;20001;-89
2023/11/28 12:47:00;;;;;;;1.27;1.17;;;5.30;90.30;;;;;;6154532;23;19998;-92
2023/11/28 12:49:27;;;;;;;1.20;1.10;;;5.20;90.30;;;;;;6155157;23;20020;-93
2023/11/28 12:51:57;;;;;;;2.30;1.40;;;5.20;90.40;;;;;;6153254;23;20053;-87
2023/11/28 12:54:24;;;;;;;1.88;1.30;;;5.20;90.30;;;;;;6135885;23;19997;-86
2023/11/28 12:56:52;;;;;;;1.10;1.00;;;5.20;90.30;;;;;;6137016;23;20085;-89
2023/11/28 12:59:19;;;;;;;1.27;1.17;;;5.20;90.30;;;;;;6138626;23;20333;-86
2023/11/28 13:01:45;;;;;;;1.52;1.10;;;5.30;90.30;;;;;;6137637;23;19997;-87
2023/11/28 13:04:11;;;;;;;1.38;1.20;;;5.20;90.20;;;;;;6139782;23;19988;-92